Time;durP1;ratioP1;P1;durP2;ratioP2;P2;SDS_P1;SDS_P2;PMS_P1;PMS_P2;Temp;Humidity;BMP_temperature;BMP_pressure;BME280_temperature;BME280_humidity;BME280_pressure;Samples;Min_cycle;Max_cycle;Signal;HPM_P1;HPM_P2
2023/02/06 00:00:56;;;;;;;;;;;;;;;6.62;100.00;101763.31;4938645;29;20021;-51
2023/02/06 00:03:21;;;;;;;;;;;;;;;7.06;100.00;101769.66;4936322;29;20004;-49
2023/02/06 00:05:56;;;;;;;;;;;;;;;7.91;100.00;101782.03;4937039;28;19929;-49
2023/02/06 00:08:22;;;;;;;;;;;;;;;7.85;100.00;101766.53;4937304;29;19976;-49
2023/02/06 00:10:47;;;;;;;;;;;;;;;8.92;100.00;101765.41;4937602;29;19935;-49
2023/02/06 00:13:12;;;;;;;;;;;;;;;8.56;100.00;101733.03;4938689;28;19926;-49
2023/02/06 00:15:37;;;;;;;;;;;;;;;8.61;100.00;101710.84;4938001;29;19922;-48
2023/02/06 00:18:03;;;;;;;;;;;;;;;8.58;100.00;101692.81;4933671;28;19927;-50
2023/02/06 00:20:28;;;;;;;;;;;;;;;8.24;100.00;101692.09;4936863;29;19929;-51
2023/02/06 00:22:53;;;;;;;;;;;;;;;7.59;100.00;101686.38;4937164;29;19968;-48
2023/02/06 00:25:18;;;;;;;;;;;;;;;7.11;100.00;101686.06;4936114;29;19922;-51
2023/02/06 00:27:44;;;;;;;;;;;;;;;6.25;100.00;101701.69;4937038;29;20021;-49
2023/02/06 00:30:09;;;;;;;;;;;;;;;6.47;100.00;101753.50;4937342;29;20049;-50
2023/02/06 00:32:34;;;;;;;;;;;;;;;5.65;100.00;101773.09;4937432;28;20418;-51
2023/02/06 00:35:00;;;;;;;;;;;;;;;5.72;100.00;101809.97;4940653;29;19922;-48
2023/02/06 00:37:25;;;;;;;;;;;;;;;5.66;100.00;101856.66;4941486;28;20033;-49
2023/02/06 00:39:50;;;;;;;;;;;;;;;6.19;100.00;101895.97;4940529;28;20391;-49
2023/02/06 00:42:15;;;;;;;;;;;;;;;5.36;100.00;101902.47;4941210;29;19922;-48
2023/02/06 00:44:41;;;;;;;;;;;;;;;5.68;100.00;101936.84;4940940;29;19950;-49
2023/02/06 00:47:06;;;;;;;;;;;;;;;5.84;100.00;101951.91;4941071;29;19953;-48
2023/02/06 00:49:31;;;;;;;;;;;;;;;5.82;100.00;101970.59;4938921;28;19977;-48
2023/02/06 00:51:56;;;;;;;;;;;;;;;5.65;100.00;101983.63;4940922;29;19926;-51
2023/02/06 00:54:22;;;;;;;;;;;;;;;5.37;100.00;101998.78;4941137;28;19923;-50
2023/02/06 00:56:47;;;;;;;;;;;;;;;5.70;100.00;102031.50;4940906;29;19929;-51
2023/02/06 00:59:12;;;;;;;;;;;;;;;5.89;100.00;102044.16;4938374;29;19929;-48
2023/02/06 01:01:37;;;;;;;;;;;;;;;6.33;100.00;102061.91;4940059;28;20001;-48
2023/02/06 01:04:02;;;;;;;;;;;;;;;6.36;100.00;102050.06;4942028;28;20009;-50
2023/02/06 01:06:28;;;;;;;;;;;;;;;6.75;100.00;102034.34;4939836;28;19926;-51
2023/02/06 01:08:53;;;;;;;;;;;;;;;6.94;100.00;102010.16;4938984;29;19928;-49
2023/02/06 01:11:20;;;;;;;;;;;;;;;6.24;100.00;101960.09;4939585;29;19926;-51
2023/02/06 01:13:45;;;;;;;;;;;;;;;6.59;100.00;101968.94;4939571;28;19929;-51
2023/02/06 01:16:12;;;;;;;;;;;;;;;6.81;100.00;101961.91;4939698;29;19923;-48
2023/02/06 01:18:37;;;;;;;;;;;;;;;6.35;100.00;101922.06;4938861;28;19950;-48
2023/02/06 01:21:09;;;;;;;;;;;;;;;7.04;100.00;101943.00;4940118;29;20023;-50
2023/02/06 01:23:35;;;;;;;;;;;;;;;7.61;100.00;101936.06;4939930;29;19922;-51
2023/02/06 01:26:03;;;;;;;;;;;;;;;7.09;100.00;101890.19;4937989;29;19934;-49
2023/02/06 01:28:28;;;;;;;;;;;;;;;6.21;100.00;101848.28;4939034;28;20361;-48
2023/02/06 01:30:54;;;;;;;;;;;;;;;6.07;100.00;101858.06;4939679;29;20598;-49
2023/02/06 01:33:19;;;;;;;;;;;;;;;5.89;100.00;101885.56;4940636;29;20552;-49
2023/02/06 01:35:44;;;;;;;;;;;;;;;5.66;100.00;101910.38;4939392;28;19929;-50
2023/02/06 01:38:09;;;;;;;;;;;;;;;5.83;100.00;101949.28;4939417;28;19934;-49
2023/02/06 01:40:35;;;;;;;;;;;;;;;5.48;100.00;101959.16;4940208;29;19922;-49
2023/02/06 01:43:00;;;;;;;;;;;;;;;5.00;100.00;101979.50;4939565;29;20013;-48
2023/02/06 01:45:26;;;;;;;;;;;;;;;5.21;100.00;102010.09;4940254;28;20354;-48
2023/02/06 01:47:52;;;;;;;;;;;;;;;4.98;100.00;102040.72;4939658;28;19937;-48
2023/02/06 01:50:17;;;;;;;;;;;;;;;5.04;100.00;102068.22;4936387;29;19926;-49
2023/02/06 01:52:43;;;;;;;;;;;;;;;5.24;100.00;102097.97;4939778;29;19949;-50
2023/02/06 01:55:08;;;;;;;;;;;;;;;4.86;100.00;102105.72;4940949;28;20125;-49
2023/02/06 01:57:33;;;;;;;;;;;;;;;4.79;99.06;102127.63;4939013;29;19973;-47
2023/02/06 02:00:00;;;;;;;;;;;;;;;4.67;93.79;102140.72;4939126;28;19926;-48
2023/02/06 02:02:25;;;;;;;;;;;;;;;5.05;88.81;102161.88;4940442;29;20391;-47
2023/02/06 02:04:51;;;;;;;;;;;;;;;5.27;86.74;102195.97;4939186;28;19973;-47
2023/02/06 02:07:17;;;;;;;;;;;;;;;5.24;87.08;102200.19;4939350;28;19926;-47
2023/02/06 02:09:43;;;;;;;;;;;;;;;6.39;86.70;102247.31;4939205;29;19929;-48
2023/02/06 02:12:08;;;;;;;;;;;;;;;6.15;99.33;102197.75;4937788;29;20384;-48
2023/02/06 02:14:33;;;;;;;;;;;;;;;5.37;100.00;102140.19;4939494;29;21539;-47
2023/02/06 02:16:59;;;;;;;;;;;;;;;5.18;100.00;102137.72;4938706;28;20269;-51
2023/02/06 02:19:42;;;;;;;;;;;;;;;5.18;99.30;102145.41;4938544;28;19933;-50
2023/02/06 02:22:23;;;;;;;;;;;;;;;5.87;100.00;102164.31;4936350;28;20400;-47
2023/02/06 02:24:54;;;;;;;;;;;;;;;5.36;100.00;102120.56;4936555;28;20395;-47
2023/02/06 02:27:38;;;;;;;;;;;;;;;5.70;100.00;102134.63;4937579;29;19929;-47
2023/02/06 02:30:22;;;;;;;;;;;;;;;5.98;100.00;102125.50;4937599;28;19981;-48
2023/02/06 02:32:50;;;;;;;;;;;;;;;5.51;100.00;102117.72;4937886;28;20360;-47
2023/02/06 02:35:21;;;;;;;;;;;;;;;5.75;100.00;102130.59;4939686;28;20387;-48
2023/02/06 02:38:05;;;;;;;;;;;;;;;6.18;100.00;102139.91;4937191;29;19928;-48
2023/02/06 02:40:36;;;;;;;;;;;;;;;5.82;100.00;102103.56;4937480;29;19967;-47
2023/02/06 02:43:05;;;;;;;;;;;;;;;5.86;100.00;102095.16;4938964;28;19926;-48
2023/02/06 02:45:41;;;;;;;;;;;;;;;5.32;100.00;102070.16;4936386;28;20606;-48
2023/02/06 02:48:06;;;;;;;;;;;;;;;5.62;100.00;102084.91;4937576;28;19922;-47
2023/02/06 02:50:31;;;;;;;;;;;;;;;5.44;100.00;102073.16;4938233;29;20687;-47
2023/02/06 02:52:57;;;;;;;;;;;;;;;5.48;100.00;102081.84;4938714;29;19933;-49
2023/02/06 02:55:22;;;;;;;;;;;;;;;5.46;100.00;102093.69;4939031;29;19930;-48
2023/02/06 02:57:48;;;;;;;;;;;;;;;5.16;100.00;102093.38;4938083;28;19922;-48
2023/02/06 03:00:16;;;;;;;;;;;;;;;4.76;100.00;102089.16;4937500;29;19930;-48
2023/02/06 03:02:41;;;;;;;;;;;;;;;4.64;100.00;102098.88;4936380;29;19922;-50
2023/02/06 03:05:08;;;;;;;;;;;;;;;4.69;100.00;102122.91;4937081;29;20745;-50
2023/02/06 03:07:40;;;;;;;;;;;;;;;4.99;99.91;102147.16;4937677;28;21612;-47
2023/02/06 03:10:24;;;;;;;;;;;;;;;4.92;97.03;102150.28;4938082;28;19927;-47
2023/02/06 03:12:50;;;;;;;;;;;;;;;4.98;95.46;102165.88;4937872;29;19927;-48
2023/02/06 03:15:21;;;;;;;;;;;;;;;4.79;96.26;102164.22;4937584;29;19922;-47
2023/02/06 03:17:48;;;;;;;;;;;;;;;4.92;94.42;102180.91;4937742;28;19918;-49
2023/02/06 03:20:13;;;;;;;;;;;;;;;4.86;92.38;102183.25;4937740;28;19926;-47
2023/02/06 03:25:42;;;;;;;;;;;;;;;5.00;92.94;102200.00;4923348;28;19972;-47
2023/02/06 03:28:11;;;;;;;;;;;;;;;4.92;93.01;102198.81;4934262;28;19919;-48
2023/02/06 03:30:41;;;;;;;;;;;;;;;4.87;91.82;102217.31;4985939;28;19933;-48
2023/02/06 03:33:06;;;;;;;;;;;;;;;4.65;92.63;102211.25;4965870;28;19991;-47
2023/02/06 03:35:33;;;;;;;;;;;;;;;4.77;89.44;102224.56;4978523;28;19918;-48
2023/02/06 03:37:58;;;;;;;;;;;;;;;5.20;85.11;102248.50;4979851;28;19922;-49
2023/02/06 03:40:24;;;;;;;;;;;;;;;5.53;88.25;102259.25;4979952;28;19921;-46
2023/02/06 03:42:50;;;;;;;;;;;;;;;5.03;93.07;102225.66;4979478;28;20084;-48
2023/02/06 03:45:18;;;;;;;;;;;;;;;4.86;92.28;102220.66;5016070;28;19921;-47
2023/02/06 03:47:43;;;;;;;;;;;;;;;5.08;92.41;102222.44;5016183;28;20398;-47
2023/02/06 03:50:08;;;;;;;;;;;;;;;5.97;87.34;102282.34;5010518;28;19926;-48
2023/02/06 03:52:37;;;;;;;;;;;;;;;5.26;99.25;102230.88;4980362;28;20393;-47
2023/02/06 03:55:04;;;;;;;;;;;;;;;5.41;96.67;102225.53;5011708;28;19962;-47
2023/02/06 03:57:29;;;;;;;;;;;;;;;5.05;99.30;102201.91;5016133;28;19917;-48
2023/02/06 03:59:55;;;;;;;;;;;;;;;5.29;98.35;102213.13;5011176;28;19921;-49
2023/02/06 04:02:20;;;;;;;;;;;;;;;4.93;100.00;102194.59;5013147;28;19937;-47
2023/02/06 04:04:45;;;;;;;;;;;;;;;4.72;98.81;102202.19;4994660;28;19965;-50
2023/02/06 04:07:16;;;;;;;;;;;;;;;4.73;96.41;102209.06;4979097;28;19921;-49
2023/02/06 04:09:42;;;;;;;;;;;;;;;4.75;95.33;102217.66;5015062;28;20016;-48
2023/02/06 04:12:07;;;;;;;;;;;;;;;4.73;90.99;102225.22;4982927;28;19922;-47
2023/02/06 04:14:32;;;;;;;;;;;;;;;4.97;93.39;102238.22;4982263;28;19936;-48
2023/02/06 04:16:57;;;;;;;;;;;;;;;5.00;91.76;102243.44;4983538;28;20409;-48
2023/02/06 04:19:23;;;;;;;;;;;;;;;5.20;93.88;102243.38;4983873;28;19926;-47
2023/02/06 04:21:48;;;;;;;;;;;;;;;5.36;93.57;102240.69;4983567;28;20353;-47
2023/02/06 04:24:13;;;;;;;;;;;;;;;5.29;97.20;102238.69;4982570;28;20613;-47
2023/02/06 04:26:38;;;;;;;;;;;;;;;5.81;96.98;102252.69;4982299;28;19922;-48
2023/02/06 04:29:04;;;;;;;;;;;;;;;5.87;100.00;102232.50;4983008;28;19929;-47
2023/02/06 04:31:29;;;;;;;;;;;;;;;6.63;100.00;102243.91;4983793;28;20016;-47
2023/02/06 04:33:54;;;;;;;;;;;;;;;6.32;100.00;102194.16;4982398;28;20294;-47
2023/02/06 04:36:20;;;;;;;;;;;;;;;6.62;100.00;102155.09;4982527;28;19921;-48
2023/02/06 04:38:45;;;;;;;;;;;;;;;5.75;100.00;102092.25;4982529;28;20032;-48
2023/02/06 04:41:10;;;;;;;;;;;;;;;5.25;100.00;102068.16;4982637;28;19961;-48
2023/02/06 04:43:35;;;;;;;;;;;;;;;5.52;100.00;102082.81;4982248;28;19928;-47
2023/02/06 04:46:01;;;;;;;;;;;;;;;6.35;100.00;102114.03;4982581;28;20012;-47
2023/02/06 04:48:26;;;;;;;;;;;;;;;5.92;100.00;102079.19;4984722;28;19957;-47
2023/02/06 04:50:51;;;;;;;;;;;;;;;5.09;100.00;102050.50;4981290;28;19933;-46
2023/02/06 04:53:17;;;;;;;;;;;;;;;5.40;100.00;102062.75;4982199;28;19922;-47
2023/02/06 04:55:42;;;;;;;;;;;;;;;4.87;100.00;102054.75;4981336;28;19922;-47
2023/02/06 04:58:07;;;;;;;;;;;;;;;5.24;100.00;102079.19;4981469;28;19988;-49
2023/02/06 05:00:32;;;;;;;;;;;;;;;5.42;100.00;102108.00;4981595;28;20048;-48
2023/02/06 05:02:58;;;;;;;;;;;;;;;5.32;100.00;102110.16;4982558;28;20001;-47
2023/02/06 05:05:23;;;;;;;;;;;;;;;4.80;100.00;102093.59;4980480;28;19932;-48
2023/02/06 05:07:48;;;;;;;;;;;;;;;4.53;100.00;102103.53;4982202;28;19922;-49
2023/02/06 05:10:13;;;;;;;;;;;;;;;4.27;100.00;102104.97;4979538;28;19983;-48
2023/02/06 05:12:39;;;;;;;;;;;;;;;5.00;95.93;102159.16;4981668;28;20355;-46
2023/02/06 05:15:04;;;;;;;;;;;;;;;4.89;99.70;102165.47;4980302;28;19922;-47
2023/02/06 05:17:30;;;;;;;;;;;;;;;5.09;99.52;102183.34;4982655;28;19922;-48
2023/02/06 05:19:55;;;;;;;;;;;;;;;4.64;99.74;102172.91;4982136;28;19925;-47
2023/02/06 05:22:21;;;;;;;;;;;;;;;4.93;99.56;102177.56;4981523;28;19924;-48
2023/02/06 05:24:46;;;;;;;;;;;;;;;4.37;100.00;102153.91;4981123;28;19917;-47
2023/02/06 05:27:12;;;;;;;;;;;;;;;4.61;97.30;102166.88;4981516;28;19917;-48
2023/02/06 05:29:37;;;;;;;;;;;;;;;4.26;99.70;102159.34;4981992;28;19996;-47
2023/02/06 05:32:02;;;;;;;;;;;;;;;4.84;94.90;102182.31;4981873;28;19928;-47
2023/02/06 05:34:27;;;;;;;;;;;;;;;4.90;97.54;102192.75;4980988;28;19964;-48
2023/02/06 05:36:52;;;;;;;;;;;;;;;4.60;97.53;102175.31;4981573;28;20016;-48
2023/02/06 05:39:18;;;;;;;;;;;;;;;3.81;98.08;102151.34;4981826;28;19996;-47
2023/02/06 05:41:43;;;;;;;;;;;;;;;4.91;89.07;102220.06;4981275;28;19932;-47
2023/02/06 05:44:09;;;;;;;;;;;;;;;4.46;94.48;102189.16;4980757;28;19921;-47
2023/02/06 05:46:35;;;;;;;;;;;;;;;4.16;90.97;102184.44;4981534;28;19926;-47
2023/02/06 05:49:00;;;;;;;;;;;;;;;4.05;85.37;102200.06;4998617;28;19926;-47
2023/02/06 05:51:25;;;;;;;;;;;;;;;4.18;82.95;102223.63;4981610;28;19925;-49
2023/02/06 05:53:50;;;;;;;;;;;;;;;4.82;81.56;102257.97;4980706;28;19922;-46
2023/02/06 05:56:16;;;;;;;;;;;;;;;3.99;89.57;102215.91;4981033;28;19922;-47
2023/02/06 05:58:41;;;;;;;;;;;;;;;4.11;85.16;102226.72;4979049;28;20418;-49
2023/02/06 06:01:06;;;;;;;;;;;;;;;4.78;83.12;102266.28;4979847;28;20575;-48
2023/02/06 06:03:31;;;;;;;;;;;;;;;4.39;88.94;102243.28;4980152;28;19918;-47
2023/02/06 06:05:57;;;;;;;;;;;;;;;4.90;84.44;102269.38;4980674;28;19921;-47
2023/02/06 06:08:23;;;;;;;;;;;;;;;4.89;88.32;102256.56;4980928;28;20016;-46
2023/02/06 06:10:49;;;;;;;;;;;;;;;4.48;90.97;102232.63;4980327;28;19926;-47
2023/02/06 06:13:14;;;;;;;;;;;;;;;4.68;90.20;102236.06;4983459;28;20031;-49
2023/02/06 06:15:39;;;;;;;;;;;;;;;4.40;88.90;102229.69;4980239;28;20494;-49
2023/02/06 06:18:04;;;;;;;;;;;;;;;4.61;90.26;102251.09;4980878;28;20423;-49
2023/02/06 06:20:29;;;;;;;;;;;;;;;3.94;94.15;102209.75;4980811;28;20434;-48
2023/02/06 06:22:55;;;;;;;;;;;;;;;4.51;89.80;102238.72;4980645;28;19918;-47
2023/02/06 06:25:20;;;;;;;;;;;;;;;4.75;93.32;102245.72;4979376;28;19921;-47
2023/02/06 06:27:45;;;;;;;;;;;;;;;4.59;95.17;102216.09;4981674;28;19941;-47
2023/02/06 06:30:11;;;;;;;;;;;;;;;4.82;93.71;102230.75;4980708;28;19937;-48
2023/02/06 06:32:36;;;;;;;;;;;;;;;4.05;98.00;102193.25;4979468;28;19918;-47
2023/02/06 06:35:01;;;;;;;;;;;;;;;4.88;92.92;102231.81;4980036;28;20311;-49
2023/02/06 06:37:26;;;;;;;;;;;;;;;5.13;98.20;102213.28;4980168;28;20005;-48
2023/02/06 06:39:52;;;;;;;;;;;;;;;4.54;100.00;102167.41;4979806;28;19972;-46
2023/02/06 06:42:17;;;;;;;;;;;;;;;4.94;97.95;102193.78;4980111;28;19929;-48
2023/02/06 06:44:42;;;;;;;;;;;;;;;5.37;99.18;102214.31;4980064;28;19921;-47
2023/02/06 06:47:09;;;;;;;;;;;;;;;4.50;100.00;102160.41;4980260;28;19926;-50
2023/02/06 06:49:34;;;;;;;;;;;;;;;3.75;100.00;102145.16;4980081;28;19926;-47
2023/02/06 06:51:59;;;;;;;;;;;;;;;3.85;100.00;102168.53;4980106;28;19926;-47
2023/02/06 06:54:25;;;;;;;;;;;;;;;4.08;98.17;102180.69;4979131;28;19917;-46
2023/02/06 06:56:50;;;;;;;;;;;;;;;4.57;96.01;102218.56;4980222;28;20040;-49
2023/02/06 06:59:15;;;;;;;;;;;;;;;4.61;96.61;102225.56;4981069;28;20016;-50
2023/02/06 07:01:40;;;;;;;;;;;;;;;4.63;97.39;102228.22;4980225;28;20028;-47
2023/02/06 07:04:06;;;;;;;;;;;;;;;4.26;99.94;102203.56;4979304;28;20839;-47
2023/02/06 07:06:31;;;;;;;;;;;;;;;4.42;97.08;102210.22;4979923;28;20318;-47
2023/02/06 07:08:56;;;;;;;;;;;;;;;4.67;95.01;102230.06;4979734;28;19973;-47
2023/02/06 07:11:23;;;;;;;;;;;;;;;4.89;96.69;102234.44;4979941;28;19928;-47
2023/02/06 07:13:48;;;;;;;;;;;;;;;4.17;100.00;102195.50;4979146;28;20644;-46
2023/02/06 07:16:13;;;;;;;;;;;;;;;5.14;97.86;102232.94;4980086;28;19926;-46
2023/02/06 07:18:40;;;;;;;;;;;;;;;5.23;100.00;102212.88;4979732;28;19968;-46
2023/02/06 07:21:05;;;;;;;;;;;;;;;5.18;100.00;102179.47;4979608;28;19945;-46
2023/02/06 07:23:30;;;;;;;;;;;;;;;5.84;100.00;102179.53;4979361;28;19922;-49
2023/02/06 07:26:01;;;;;;;;;;;;;;;5.97;100.00;102133.97;4982697;28;19918;-49
2023/02/06 07:28:26;;;;;;;;;;;;;;;5.42;100.00;102097.78;5002406;28;19917;-48
2023/02/06 07:30:51;;;;;;;;;;;;;;;6.69;100.00;102134.88;4982984;28;19960;-51
2023/02/06 07:33:16;;;;;;;;;;;;;;;8.07;100.00;102116.94;4980043;28;19928;-49
2023/02/06 07:35:42;;;;;;;;;;;;;;;8.61;100.00;102028.53;4978692;28;19963;-49
2023/02/06 07:38:08;;;;;;;;;;;;;;;7.25;100.00;101890.59;4980310;28;20575;-48
2023/02/06 07:40:33;;;;;;;;;;;;;;;7.96;100.00;101886.53;4979226;28;19933;-50
2023/02/06 07:42:58;;;;;;;;;;;;;;;6.46;100.00;101808.09;4982007;28;20676;-50
2023/02/06 07:45:24;;;;;;;;;;;;;;;8.16;100.00;101835.72;4983187;28;20377;-50
2023/02/06 07:47:50;;;;;;;;;;;;;;;8.72;100.00;101809.56;4984019;28;20357;-49
2023/02/06 07:50:16;;;;;;;;;;;;;;;8.25;100.00;101742.59;4983055;28;19969;-48
2023/02/06 07:52:41;;;;;;;;;;;;;;;6.74;100.00;101698.78;4983828;28;20013;-48
2023/02/06 07:55:08;;;;;;;;;;;;;;;7.45;100.00;101733.06;4982323;28;19928;-49
2023/02/06 07:57:34;;;;;;;;;;;;;;;6.25;100.00;101711.06;4983507;28;19921;-48
2023/02/06 07:59:59;;;;;;;;;;;;;;;6.78;100.00;101736.44;4983546;28;19929;-48
2023/02/06 08:02:24;;;;;;;;;;;;;;;7.37;100.00;101760.22;4982820;28;19935;-51
2023/02/06 08:04:49;;;;;;;;;;;;;;;6.98;100.00;101748.09;4982563;28;20410;-50
2023/02/06 08:07:15;;;;;;;;;;;;;;;6.36;100.00;101744.63;4983251;28;19922;-47
2023/02/06 08:09:40;;;;;;;;;;;;;;;6.94;100.00;101781.28;4981469;28;19921;-47
2023/02/06 08:12:06;;;;;;;;;;;;;;;6.63;100.00;101773.59;4983369;28;19952;-50
2023/02/06 08:14:31;;;;;;;;;;;;;;;6.12;100.00;101761.00;4982129;28;20300;-49
2023/02/06 08:16:57;;;;;;;;;;;;;;;5.96;100.00;101779.25;4982935;28;20402;-48
2023/02/06 08:19:22;;;;;;;;;;;;;;;7.02;100.00;101821.63;4982867;28;20287;-49
2023/02/06 08:21:48;;;;;;;;;;;;;;;7.80;100.00;101827.97;4983201;28;20470;-48
2023/02/06 08:24:13;;;;;;;;;;;;;;;8.84;100.00;101824.34;4981847;28;19922;-48
2023/02/06 08:26:38;;;;;;;;;;;;;;;9.34;100.00;101774.75;4982500;28;19925;-48
2023/02/06 08:29:04;;;;;;;;;;;;;;;9.31;100.00;101738.69;4982758;28;19921;-48
2023/02/06 08:31:31;;;;;;;;;;;;;;;9.05;100.00;101710.81;4982553;28;19938;-48
2023/02/06 08:33:56;;;;;;;;;;;;;;;8.78;100.00;101682.91;4981873;28;19961;-49
2023/02/06 08:36:22;;;;;;;;;;;;;;;8.64;100.00;101669.78;4982573;28;19953;-49
2023/02/06 08:38:47;;;;;;;;;;;;;;;8.52;100.00;101659.31;4982344;28;19918;-49
2023/02/06 08:41:16;;;;;;;;;;;;;;;9.30;100.00;101660.66;4982902;28;19921;-49
2023/02/06 08:43:41;;;;;;;;;;;;;;;8.24;100.00;101622.78;4981899;28;19918;-48
2023/02/06 08:46:06;;;;;;;;;;;;;;;6.59;100.00;101614.72;4982456;28;20395;-50
2023/02/06 08:48:31;;;;;;;;;;;;;;;6.04;100.00;101648.22;4981954;28;20413;-50
2023/02/06 08:51:00;;;;;;;;;;;;;;;6.23;100.00;101677.75;4982384;28;20284;-49
2023/02/06 08:53:25;;;;;;;;;;;;;;;6.82;100.00;101715.19;4982489;28;20347;-48
2023/02/06 08:55:56;;;;;;;;;;;;;;;6.45;100.00;101717.63;4981566;28;19933;-48
2023/02/06 08:58:21;;;;;;;;;;;;;;;5.86;100.00;101722.66;4981842;28;19913;-49
2023/02/06 09:00:46;;;;;;;;;;;;;;;8.25;100.00;101788.81;4982073;28;19945;-48
2023/02/06 09:03:12;;;;;;;;;;;;;;;7.43;100.00;101738.97;4981910;28;19918;-51
2023/02/06 09:05:37;;;;;;;;;;;;;;;5.95;100.00;101721.22;5020451;28;19924;-49
2023/02/06 09:08:02;;;;;;;;;;;;;;;5.09;100.00;101733.78;5009305;28;19922;-48
2023/02/06 09:10:27;;;;;;;;;;;;;;;4.52;100.00;101768.34;5002808;28;19929;-48
2023/02/06 09:12:53;;;;;;;;;;;;;;;5.03;100.00;101827.22;5018432;28;20386;-48
2023/02/06 09:15:19;;;;;;;;;;;;;;;4.87;100.00;101859.81;5026721;28;19960;-47
2023/02/06 09:17:44;;;;;;;;;;;;;;;4.44;100.00;101884.56;4980597;28;20506;-50
2023/02/06 09:20:10;;;;;;;;;;;;;;;4.75;100.00;101931.72;4985441;28;19918;-48
2023/02/06 09:22:35;;;;;;;;;;;;;;;4.68;100.00;101961.22;4982511;28;19921;-50
2023/02/06 09:25:00;;;;;;;;;;;;;;;5.38;100.00;102018.38;4981083;28;20611;-49
2023/02/06 09:27:25;;;;;;;;;;;;;;;6.98;100.00;102068.38;4981497;28;20019;-50
2023/02/06 09:29:51;;;;;;;;;;;;;;;5.62;100.00;101990.31;4981654;28;20366;-47
2023/02/06 09:32:16;;;;;;;;;;;;;;;5.72;100.00;101991.50;4981894;28;20446;-48
2023/02/06 09:34:41;;;;;;;;;;;;;;;5.89;100.00;102007.47;4982199;28;19940;-50
2023/02/06 09:37:06;;;;;;;;;;;;;;;7.23;100.00;102035.81;4981588;28;19929;-50
2023/02/06 09:39:32;;;;;;;;;;;;;;;7.99;100.00;101996.09;4979080;28;19917;-47
2023/02/06 09:42:04;;;;;;;;;;;;;;;8.50;100.00;101928.94;4981067;28;20008;-48
2023/02/06 09:44:31;;;;;;;;;;;;;;;6.29;100.00;101833.16;5016557;28;19979;-49
2023/02/06 09:46:56;;;;;;;;;;;;;;;6.00;100.00;101828.00;5012392;28;19983;-48
2023/02/06 09:49:24;;;;;;;;;;;;;;;6.14;100.00;101859.13;4981143;28;20350;-48
2023/02/06 09:51:52;;;;;;;;;;;;;;;7.12;100.00;101885.16;5018004;28;19959;-49
2023/02/06 09:54:53;;;;;;;;;;;;;;;6.05;100.00;101853.72;4980371;28;19981;-49
2023/02/06 09:57:23;;;;;;;;;;;;;;;7.50;100.00;101908.44;4965496;28;20516;-48
2023/02/06 09:59:50;;;;;;;;;;;;;;;6.89;100.00;101875.94;4976573;28;19917;-48
2023/02/06 10:02:24;;;;;;;;;;;;;;;7.20;100.00;101874.25;5006108;28;19963;-49
2023/02/06 10:04:52;;;;;;;;;;;;;;;7.00;100.00;101841.25;4980009;28;19928;-51
2023/02/06 10:07:26;;;;;;;;;;;;;;;7.93;100.00;101841.97;4980870;28;20373;-48
2023/02/06 10:09:54;;;;;;;;;;;;;;;6.82;100.00;101812.53;4980693;28;20052;-49
2023/02/06 10:12:30;;;;;;;;;;;;;;;7.59;100.00;101819.72;4980904;28;19932;-48
2023/02/06 10:15:00;;;;;;;;;;;;;;;7.91;100.00;101792.31;5018262;28;19971;-48
2023/02/06 10:17:26;;;;;;;;;;;;;;;7.39;100.00;101776.50;5004606;28;19968;-48
2023/02/06 10:19:57;;;;;;;;;;;;;;;7.67;100.00;101787.47;5020322;28;19913;-50
2023/02/06 10:22:37;;;;;;;;;;;;;;;7.13;100.00;101784.38;4983440;28;19960;-48
2023/02/06 10:25:23;;;;;;;;;;;;;;;6.68;100.00;101789.09;4995332;28;19922;-49
2023/02/06 10:27:52;;;;;;;;;;;;;;;6.43;100.00;101803.75;5023889;28;19918;-50
2023/02/06 10:30:18;;;;;;;;;;;;;;;5.86;100.00;101819.84;5019013;28;19918;-48
2023/02/06 10:32:44;;;;;;;;;;;;;;;4.95;100.00;101817.53;4980372;28;19948;-47
2023/02/06 10:35:22;;;;;;;;;;;;;;;6.84;100.00;101892.84;5002454;28;20692;-48
2023/02/06 10:38:01;;;;;;;;;;;;;;;6.58;100.00;101892.06;5017621;28;19921;-48
2023/02/06 10:40:46;;;;;;;;;;;;;;;6.23;100.00;101886.72;4980480;28;19933;-49
2023/02/06 10:43:21;;;;;;;;;;;;;;;5.63;100.00;101892.34;4982420;28;19930;-49
2023/02/06 10:46:06;;;;;;;;;;;;;;;6.27;100.00;101917.56;4979793;28;19977;-47
2023/02/06 10:48:37;;;;;;;;;;;;;;;7.42;100.00;101930.41;4979817;28;19956;-49
2023/02/06 10:51:21;;;;;;;;;;;;;;;8.47;100.00;101920.31;4998746;28;19925;-51
2023/02/06 10:53:50;;;;;;;;;;;;;;;6.65;100.00;101824.84;4979493;28;19988;-48
2023/02/06 10:56:16;;;;;;;;;;;;;;;7.22;100.00;101836.72;4999906;28;19963;-48
2023/02/06 10:58:45;;;;;;;;;;;;;;;9.18;100.00;101858.44;5008879;28;19922;-48
2023/02/06 11:01:11;;;;;;;;;;;;;;;9.37;100.00;101792.78;5014845;28;19945;-50
2023/02/06 11:03:36;;;;;;;;;;;;;;;9.09;100.00;101725.44;5018026;28;20019;-49
2023/02/06 11:06:02;;;;;;;;;;;;;;;9.29;100.00;101700.09;5018926;28;19918;-49
2023/02/06 11:08:29;;;;;;;;;;;;;;;7.39;100.00;101648.31;4979888;28;19921;-48
2023/02/06 11:10:54;;;;;;;;;;;;;;;7.39;100.00;101693.59;5023873;28;19922;-49
2023/02/06 11:13:22;;;;;;;;;;;;;;;8.07;100.00;101711.41;5001388;28;20413;-48
2023/02/06 11:15:56;;;;;;;;;;;;;;;8.51;100.00;101704.66;4979880;28;19917;-48
2023/02/06 11:18:23;;;;;;;;;;;;;;;7.21;100.00;101689.75;5002186;28;19957;-49
2023/02/06 11:20:49;;;;;;;;;;;;;;;6.80;100.00;101688.69;5018715;28;20375;-49
2023/02/06 11:23:18;;;;;;;;;;;;;;;6.42;100.00;101698.75;4979659;28;19929;-49
2023/02/06 11:25:43;;;;;;;;;;;;;;;7.30;100.00;101745.53;4979250;28;19921;-48
2023/02/06 11:28:16;;;;;;;;;;;;;;;8.49;100.00;101795.38;5020547;28;19917;-51
2023/02/06 11:30:42;;;;;;;;;;;;;;;9.08;100.00;101790.56;5002873;28;19926;-50
2023/02/06 11:33:18;;;;;;;;;;;;;;;6.91;100.00;101710.31;5021928;28;19917;-49
2023/02/06 11:35:48;;;;;;;;;;;;;;;7.63;100.00;101736.91;5005949;28;19922;-51
2023/02/06 11:38:14;;;;;;;;;;;;;;;7.63;100.00;101734.34;5011273;28;19922;-50
2023/02/06 11:40:40;;;;;;;;;;;;;;;7.29;100.00;101723.25;4979603;28;20012;-50
2023/02/06 11:43:08;;;;;;;;;;;;;;;6.65;100.00;101709.63;4995241;28;20037;-50
2023/02/06 11:45:33;;;;;;;;;;;;;;;6.67;100.00;101731.03;4978852;28;19929;-51
2023/02/06 11:47:59;;;;;;;;;;;;;;;6.34;100.00;101748.84;4979747;28;20460;-51
2023/02/06 11:50:24;;;;;;;;;;;;;;;6.69;100.00;101785.72;4979017;28;19926;-50
2023/02/06 11:52:54;;;;;;;;;;;;;;;6.09;100.00;101794.16;4986820;28;20003;-51
2023/02/06 11:55:24;;;;;;;;;;;;;;;6.13;100.00;101824.13;4978594;28;20338;-49
2023/02/06 11:58:08;;;;;;;;;;;;;;;5.93;100.00;101845.59;4979610;28;20263;-51
2023/02/06 12:00:34;;;;;;;;;;;;;;;5.94;100.00;101870.38;5009704;28;20040;-51
2023/02/06 12:03:00;;;;;;;;;;;;;;;5.46;100.00;101876.44;4979190;28;20020;-51
2023/02/06 12:05:26;;;;;;;;;;;;;;;5.68;100.00;101906.19;5027247;28;20446;-51
2023/02/06 12:07:52;;;;;;;;;;;;;;;5.99;100.00;101922.59;5016173;28;19918;-51
2023/02/06 12:10:17;;;;;;;;;;;;;;;6.98;100.00;101955.63;4979304;28;19940;-50
2023/02/06 12:12:45;;;;;;;;;;;;;;;6.05;100.00;101892.97;4979190;28;19928;-49
2023/02/06 12:15:14;;;;;;;;;;;;;;;6.00;100.00;101909.84;5019951;28;19917;-52
2023/02/06 12:17:40;;;;;;;;;;;;;;;5.16;100.00;101894.09;4978790;28;20421;-49
2023/02/06 12:20:09;;;;;;;;;;;;;;;5.58;100.00;101933.09;5010608;28;19917;-50
2023/02/06 12:22:37;;;;;;;;;;;;;;;5.43;100.00;101941.09;4979104;28;20033;-50
2023/02/06 12:25:02;;;;;;;;;;;;;;;5.43;100.00;101963.22;5017505;28;19940;-50
2023/02/06 12:27:31;;;;;;;;;;;;;;;5.63;100.00;101980.16;5013906;28;19961;-49
2023/02/06 12:30:22;;;;;;;;;;;;;;;7.03;100.00;102017.28;5018673;28;19917;-50
2023/02/06 12:32:48;;;;;;;;;;;;;;;7.77;100.00;101994.63;4985161;28;19933;-49
2023/02/06 12:35:20;;;;;;;;;;;;;;;6.65;100.00;101910.22;5023347;28;19999;-50
2023/02/06 12:37:48;;;;;;;;;;;;;;;6.33;100.00;101878.50;4982789;28;19922;-50
2023/02/06 12:40:20;;;;;;;;;;;;;;;6.87;100.00;101903.19;4982596;28;19933;-50
2023/02/06 12:42:55;;;;;;;;;;;;;;;7.23;100.00;101898.28;5027381;28;20363;-50